Patricia Ann — WDE2845 — position and weather

sailwx.info

Track history (hours):
 
Tides and Currents Weather Stations Pressure Air Temp Water Temp Dewpoint Dewpoint Depression Visibility Wind Speed Wind Dir Waves Ship Positions

Patricia Ann

Owner: AmNav Maritime Corporation, Oakland, CA. More information available from US FCC via Universal Licensing System and Coast Guard Vessel Documentation Center.

Last reported at 2018-Jan-23 14:00 UTC. Time now 2018-Jan-23 14:05 UTC.
Position N 37°49' W 122°20'.

Length 24 m; draft 4.9 m.

Type: Tug. MMSI: 367330510.

Date/timePositionNaut miles runAvg speedWind from/ knotsBaromVisibWave heightAir tempDewpointWater temp
2018-Jan-23 14:00N 37°49' W 122°20'1 2.1
2018-Jan-23 13:30N 37°48' W 122°19'0 0.8
2018-Jan-23 13:00N 37°48' W 122°20'1 2.7
2018-Jan-23 12:30N 37°48' W 122°21'1 1.2
2018-Jan-23 11:59N 37°48' W 122°21'0 0.1
2018-Jan-23 11:30N 37°48' W 122°21'0 0.0
2018-Jan-23 11:00N 37°48' W 122°21'0 0.0
2018-Jan-23 10:30N 37°48' W 122°21'0 0.0
2018-Jan-23 10:00N 37°48' W 122°21'0 0.0
2018-Jan-23 09:30N 37°48' W 122°21'1 2.3
2018-Jan-23 09:00N 37°48' W 122°19'1 1.9
2018-Jan-23 08:30N 37°48' W 122°18'0 0.6
2018-Jan-23 08:00N 37°48' W 122°18'2 4.8
2018-Jan-23 07:30N 37°48' W 122°21'1 2.3
2018-Jan-23 07:00N 37°49' W 122°20'1 1.6
2018-Jan-23 06:30N 37°49' W 122°19'0 0.0
2018-Jan-23 05:59N 37°49' W 122°19'0 0.0
2018-Jan-23 05:30N 37°49' W 122°19'0 0.0
2018-Jan-23 05:00N 37°49' W 122°19'0 0.0
2018-Jan-23 04:30N 37°49' W 122°19'0 0.0
2018-Jan-23 03:59N 37°49' W 122°19'3 5.8
2018-Jan-23 03:30N 37°50' W 122°22'5 9.8
2018-Jan-23 03:00N 37°55' W 122°25'1 1.1
2018-Jan-23 02:18N 37°55' W 122°25'1 1.7
2018-Jan-23 01:58N 37°55' W 122°25'2 4.4
2018-Jan-23 01:30N 37°53' W 122°25'2 3.9
2018-Jan-23 01:00N 37°52' W 122°24'4 8.3
2018-Jan-23 00:30N 37°49' W 122°20'1 2.0
2018-Jan-22 23:54N 37°49' W 122°19'0 0.0
2018-Jan-22 23:29N 37°49' W 122°19'0 0.0
2018-Jan-22 23:00N 37°49' W 122°19'0 0.0
2018-Jan-22 22:30N 37°49' W 122°19'0 0.0
2018-Jan-22 22:00N 37°49' W 122°19'0 0.0
2018-Jan-22 21:30N 37°49' W 122°19'0 0.0
2018-Jan-22 21:00N 37°49' W 122°19'0 0.0
2018-Jan-22 20:30N 37°49' W 122°19'0 0.0
2018-Jan-22 20:00N 37°49' W 122°19'0 0.0
2018-Jan-22 19:30N 37°49' W 122°19'0 0.0
2018-Jan-22 19:00N 37°49' W 122°19'0 0.0
2018-Jan-22 18:30N 37°49' W 122°19'0 0.0
2018-Jan-22 18:00N 37°49' W 122°19'0 0.0
2018-Jan-22 17:30N 37°49' W 122°19'0 0.0
2018-Jan-22 17:00N 37°49' W 122°19'0 0.0
2018-Jan-22 16:30N 37°49' W 122°19'0 0.0
2018-Jan-22 15:59N 37°49' W 122°19'0 0.0
2018-Jan-22 15:30N 37°49' W 122°19'2 3.2
2018-Jan-22 15:00N 37°48' W 122°19'0 0.2
2018-Jan-22 14:30N 37°48' W 122°19'1 1.9
2018-Jan-22 14:01N 37°48' W 122°18'2 4.9
2018-Jan-22 13:31N 37°48' W 122°21'1 2.9
2018-Jan-22 13:01N 37°48' W 122°22'1 1.0
2018-Jan-22 12:30N 37°48' W 122°22'3 5.4
2018-Jan-22 12:00N 37°49' W 122°19'0 0.0
2018-Jan-22 11:30N 37°49' W 122°19'0 0.0
2018-Jan-22 11:00N 37°49' W 122°19'0 0.0
2018-Jan-22 10:30N 37°49' W 122°19'0 0.0
2018-Jan-22 10:00N 37°49' W 122°19'0 0.0
2018-Jan-22 09:30N 37°49' W 122°19'0 0.0
2018-Jan-22 09:00N 37°49' W 122°19'0 0.0
2018-Jan-22 08:30N 37°49' W 122°19'0 0.0
2018-Jan-22 08:00N 37°49' W 122°19'0 0.0
2018-Jan-22 07:30N 37°49' W 122°19'0 0.0
2018-Jan-22 07:00N 37°49' W 122°19'0 0.0
2018-Jan-22 06:30N 37°49' W 122°19'0 0.0
2018-Jan-22 06:01N 37°49' W 122°19'0 0.0
2018-Jan-22 05:30N 37°49' W 122°19'0 0.0
2018-Jan-22 05:00N 37°49' W 122°19'0 0.0
2018-Jan-22 04:30N 37°49' W 122°19'0 0.0
2018-Jan-22 04:00N 37°49' W 122°19'0 0.0
2018-Jan-22 03:29N 37°49' W 122°19'0 0.0
2018-Jan-22 03:01N 37°49' W 122°19'2 3.3
2018-Jan-22 02:30N 37°48' W 122°19'0 0.1
2018-Jan-22 02:01N 37°48' W 122°19'0 0.7
2018-Jan-22 01:30N 37°48' W 122°19'0 0.1
2018-Jan-22 01:00N 37°48' W 122°19'0 0.7
2018-Jan-22 00:31N 37°48' W 122°20'3 5.8
2018-Jan-22 00:00N 37°50' W 122°22'4 9.0
2018-Jan-21 23:30N 37°54' W 122°25'2 4.8
2018-Jan-21 23:00N 37°55' W 122°22'0 0.0
2018-Jan-21 22:30N 37°55' W 122°22'0 0.9
2018-Jan-21 22:00N 37°55' W 122°22'0 0.9
2018-Jan-21 21:30N 37°55' W 122°22'0 0.0
2018-Jan-21 21:00N 37°55' W 122°22'0 0.0
2018-Jan-21 20:30N 37°55' W 122°22'0 0.0
2018-Jan-21 20:00N 37°55' W 122°22'0 0.0
2018-Jan-21 19:30N 37°55' W 122°22'0 0.0
2018-Jan-21 19:00N 37°55' W 122°22'0 0.0
2018-Jan-21 18:30N 37°55' W 122°22'0 0.0
2018-Jan-21 18:00N 37°55' W 122°22'0 0.0
2018-Jan-21 17:31N 37°55' W 122°22'0 0.0
2018-Jan-21 17:00N 37°55' W 122°22'1 2.1
2018-Jan-21 16:31N 37°54' W 122°23'3 6.0
2018-Jan-21 16:00N 37°51' W 122°23'5 9.3
2018-Jan-21 15:31N 37°48' W 122°19'0 0.5
2018-Jan-21 15:00N 37°48' W 122°20'1 2.8
2018-Jan-21 14:30N 37°48' W 122°21'2 4.4
2018-Jan-21 14:01N 37°48' W 122°19'1 3.0
2018-Jan-21 13:30N 37°48' W 122°20'1 2.2
2018-Jan-21 13:00N 37°48' W 122°22'3 5.4
2018-Jan-21 12:30N 37°49' W 122°19'0 0.0
2018-Jan-21 12:00N 37°49' W 122°19'0 0.0
2018-Jan-21 11:30N 37°49' W 122°19'0 0.0
2018-Jan-21 11:01N 37°49' W 122°19'0 0.0
2018-Jan-21 10:30N 37°49' W 122°19'0 0.0
2018-Jan-21 10:01N 37°49' W 122°19'0 0.0
2018-Jan-21 09:30N 37°49' W 122°19'0 0.0
2018-Jan-21 09:00N 37°49' W 122°19'0 0.0
2018-Jan-21 08:31N 37°49' W 122°19'0 0.0
2018-Jan-21 08:00N 37°49' W 122°19'0 0.0
2018-Jan-21 07:31N 37°49' W 122°19'0 0.0
2018-Jan-21 07:00N 37°49' W 122°19'0 0.0
2018-Jan-21 06:30N 37°49' W 122°19'0 0.0
2018-Jan-21 06:00N 37°49' W 122°19'0 0.0
2018-Jan-21 05:30N 37°49' W 122°19'0 0.0
2018-Jan-21 05:01N 37°49' W 122°19'0 0.0
2018-Jan-21 04:30N 37°49' W 122°19'0 0.0
2018-Jan-21 04:00N 37°49' W 122°19'0 0.0
2018-Jan-21 03:30N 37°49' W 122°19'1 1.7
2018-Jan-21 03:01N 37°49' W 122°20'0 0.6
2018-Jan-21 02:31N 37°49' W 122°20'1 2.9
2018-Jan-21 02:00N 37°48' W 122°22'1 1.6
2018-Jan-21 01:31N 37°48' W 122°21'1 1.6
2018-Jan-21 01:01N 37°49' W 122°20'0 0.2
2018-Jan-21 00:30N 37°49' W 122°20'0 0.1
2018-Jan-21 00:00N 37°49' W 122°20'0 0.2
2018-Jan-20 23:30N 37°49' W 122°20'4 7.6
2018-Jan-20 23:00N 37°51' W 122°23'4 8.7
2018-Jan-20 22:30N 37°55' W 122°25'3 5.3
2018-Jan-20 22:00N 37°54' W 122°22'0 0.5
2018-Jan-20 21:30N 37°54' W 122°22'3 5.6
2018-Jan-20 21:00N 37°52' W 122°24'4 8.5
2018-Jan-20 20:30N 37°49' W 122°20'1 2.3
2018-Jan-20 20:01N 37°49' W 122°19'0 0.0
2018-Jan-20 19:31N 37°49' W 122°19'0 0.0
2018-Jan-20 19:01N 37°49' W 122°19'0 0.0
2018-Jan-20 18:30N 37°49' W 122°19'0 0.0
2018-Jan-20 18:01N 37°49' W 122°19'0 0.0
2018-Jan-20 17:30N 37°49' W 122°19'0 0.0
2018-Jan-20 17:00N 37°49' W 122°19'2 3.4
2018-Jan-20 16:30N 37°48' W 122°21'2 3.1
2018-Jan-20 15:59N 37°48' W 122°19'1 1.7
2018-Jan-20 15:30N 37°48' W 122°20'3 5.1
2018-Jan-20 15:00N 37°49' W 122°23'1 2.2
2018-Jan-20 14:30N 37°50' W 122°24'2 4.1
2018-Jan-20 14:00N 37°52' W 122°24'3 6.8
2018-Jan-20 13:30N 37°54' W 122°22'0 0.3
2018-Jan-20 13:01N 37°54' W 122°22'2 3.0
2018-Jan-20 12:30N 37°54' W 122°24'1 2.7
2018-Jan-20 12:00N 37°54' W 122°25'3 5.6
2018-Jan-20 11:31N 37°51' W 122°23'4 8.3
2018-Jan-20 11:00N 37°49' W 122°19'1 1.1
2018-Jan-20 10:31N 37°49' W 122°19'0 0.0
2018-Jan-20 09:59N 37°49' W 122°19'0 0.0
2018-Jan-20 09:31N 37°49' W 122°19'0 0.0
2018-Jan-20 09:01N 37°49' W 122°19'0 0.0
2018-Jan-20 08:30N 37°49' W 122°19'0 0.0
2018-Jan-20 08:00N 37°49' W 122°19'0 0.0
2018-Jan-20 07:30N 37°49' W 122°19'0 0.0
2018-Jan-20 07:00N 37°49' W 122°19'0 0.0
2018-Jan-20 06:31N 37°49' W 122°19'2 3.5
2018-Jan-20 06:00N 37°48' W 122°20'3 6.8
2018-Jan-20 05:30N 37°45' W 122°20'1 2.5
2018-Jan-20 05:01N 37°43' W 122°20'3 6.7
2018-Jan-20 04:31N 37°47' W 122°22'2 4.6
2018-Jan-20 04:00N 37°48' W 122°19'0 0.6
2018-Jan-20 03:31N 37°48' W 122°19'1 2.6
2018-Jan-20 03:00N 37°49' W 122°20'0 0.2
2018-Jan-20 02:30N 37°49' W 122°20'1 2.4
2018-Jan-20 02:00N 37°48' W 122°21'1 1.1
2018-Jan-20 01:30N 37°48' W 122°21'0 0.0
2018-Jan-20 01:00N 37°48' W 122°21'0 0.0
2018-Jan-20 00:30N 37°48' W 122°21'3 6.4
2018-Jan-20 00:01N 37°51' W 122°23'3 7.0
2018-Jan-19 23:30N 37°54' W 122°23'1 2.6
2018-Jan-19 23:00N 37°55' W 122°22'0 0.5
2018-Jan-19 22:30N 37°55' W 122°22'2 3.5
2018-Jan-19 22:00N 37°54' W 122°24'1 1.9
2018-Jan-19 21:30N 37°55' W 122°25'510.1
2018-Jan-19 21:00N 37°50' W 122°22'3 5.8
2018-Jan-19 20:30N 37°49' W 122°19'0 0.0
2018-Jan-19 20:00N 37°49' W 122°19'0 0.0
2018-Jan-19 19:30N 37°49' W 122°19'0 0.0
2018-Jan-19 19:00N 37°49' W 122°19'0 0.0
2018-Jan-19 18:30N 37°49' W 122°19'0 0.0
2018-Jan-19 18:00N 37°49' W 122°19'0 0.0
2018-Jan-19 17:30N 37°49' W 122°19'0 0.0
2018-Jan-19 16:59N 37°49' W 122°19'0 0.0
2018-Jan-19 16:29N 37°49' W 122°19'0 0.0
2018-Jan-19 15:58N 37°49' W 122°19'0 0.0
2018-Jan-19 15:30N 37°49' W 122°19'0 0.0
2018-Jan-19 14:57N 37°49' W 122°19'0 0.0
2018-Jan-19 14:29N 37°49' W 122°19'0 0.0
2018-Jan-19 14:00N 37°49' W 122°19'0 0.0
2018-Jan-19 13:30N 37°49' W 122°19'0 0.0
2018-Jan-19 13:00N 37°49' W 122°19'0 0.0
2018-Jan-19 12:30N 37°49' W 122°19'0 0.0
2018-Jan-19 12:00N 37°49' W 122°19'0 0.0
2018-Jan-19 11:30N 37°49' W 122°19'0 0.0
2018-Jan-19 11:00N 37°49' W 122°19'0 0.0
2018-Jan-19 10:30N 37°49' W 122°19'0 0.0
2018-Jan-19 10:01N 37°49' W 122°19'0 0.0
2018-Jan-19 09:31N 37°49' W 122°19'0 0.0
2018-Jan-19 09:01N 37°49' W 122°19'0 0.0
2018-Jan-19 08:30N 37°49' W 122°19'0 0.0
2018-Jan-19 08:01N 37°49' W 122°19'0 0.0
2018-Jan-19 07:30N 37°49' W 122°19'0 0.0
2018-Jan-19 07:00N 37°49' W 122°19'0 0.0
2018-Jan-19 06:31N 37°49' W 122°19'0 0.0
2018-Jan-19 06:00N 37°49' W 122°19'0 0.0
2018-Jan-19 05:30N 37°49' W 122°19'0 0.0
2018-Jan-19 05:00N 37°49' W 122°19'0 0.0
2018-Jan-19 04:30N 37°49' W 122°19'0 0.0
2018-Jan-19 04:01N 37°49' W 122°19'1 1.7
2018-Jan-19 03:30N 37°49' W 122°20'1 2.9
2018-Jan-19 03:00N 37°48' W 122°19'1 2.0
2018-Jan-19 02:31N 37°48' W 122°17'1 2.8
2018-Jan-19 02:00N 37°48' W 122°19'0 0.0
2018-Jan-19 01:30N 37°48' W 122°19'1 1.3
2018-Jan-19 01:00N 37°48' W 122°20'2 3.2
2018-Jan-19 00:30N 37°49' W 122°19'0 0.0
2018-Jan-19 00:00N 37°49' W 122°19'0 0.0
2018-Jan-18 23:30N 37°49' W 122°19'0 0.0
2018-Jan-18 23:01N 37°49' W 122°19'0 0.0
2018-Jan-18 22:30N 37°49' W 122°19'0 0.0
2018-Jan-18 21:59N 37°49' W 122°19'0 0.9
2018-Jan-18 21:30N 37°49' W 122°19'4 7.9
2018-Jan-18 21:01N 37°51' W 122°23'4 4.9
2018-Jan-18 20:07N 37°56' W 122°25'0 0.0
2018-Jan-18 20:00N 37°56' W 122°25'0 0.4
2018-Jan-18 19:29N 37°55' W 122°25'2 4.2
2018-Jan-18 18:59N 37°53' W 122°25'3 6.6
2018-Jan-18 18:30N 37°51' W 122°23'3 6.9
2018-Jan-18 18:00N 37°49' W 122°19'0 0.6
2018-Jan-18 17:30N 37°49' W 122°19'0 0.0
2018-Jan-18 17:01N 37°49' W 122°19'0 0.0
2018-Jan-18 16:30N 37°49' W 122°19'0 0.0
2018-Jan-18 16:00N 37°49' W 122°19'0 0.0
2018-Jan-18 15:30N 37°49' W 122°19'2 3.6
2018-Jan-18 15:00N 37°48' W 122°21'0 0.5
2018-Jan-18 14:31N 37°48' W 122°20'2 3.0
2018-Jan-18 14:00N 37°48' W 122°19'1 1.5
2018-Jan-18 13:31N 37°48' W 122°18'2 3.0
2018-Jan-18 13:01N 37°48' W 122°20'2 3.7
2018-Jan-18 12:31N 37°47' W 122°22'2 3.0
2018-Jan-18 12:00N 37°48' W 122°21'2 3.6
2018-Jan-18 11:30N 37°49' W 122°19'0 0.0
2018-Jan-18 11:00N 37°49' W 122°19'0 0.0
2018-Jan-18 10:30N 37°49' W 122°19'0 0.0
2018-Jan-18 10:01N 37°49' W 122°19'0 0.0
2018-Jan-18 09:31N 37°49' W 122°19'0 0.0
2018-Jan-18 08:59N 37°49' W 122°19'0 0.0
2018-Jan-18 08:30N 37°49' W 122°19'0 0.0
2018-Jan-18 08:00N 37°49' W 122°19'0 0.0
2018-Jan-18 07:30N 37°49' W 122°19'0 0.0
2018-Jan-18 07:00N 37°49' W 122°19'0 0.0
2018-Jan-18 06:30N 37°49' W 122°19'0 0.0
2018-Jan-18 05:59N 37°49' W 122°19'0 0.0
2018-Jan-18 05:30N 37°49' W 122°19'0 0.0
2018-Jan-18 05:00N 37°49' W 122°19'0 0.0
2018-Jan-18 04:30N 37°49' W 122°19'0 0.0
2018-Jan-18 04:00N 37°49' W 122°19'1 1.1
2018-Jan-18 03:30N 37°49' W 122°19'1 2.2
2018-Jan-18 03:00N 37°48' W 122°19'0 0.6
2018-Jan-18 02:30N 37°48' W 122°19'0 0.0
2018-Jan-18 02:01N 37°48' W 122°19'0 0.5
2018-Jan-18 01:31N 37°48' W 122°19'1 1.8
2018-Jan-18 01:01N 37°48' W 122°20'2 1.9
2018-Jan-18 00:00N 37°49' W 122°19'0 0.0
2018-Jan-17 23:57N 37°49' W 122°19'  
Track history (hours):
 
Tides and Currents Weather Stations Pressure Air Temp Water Temp Dewpoint Dewpoint Depression Visibility Wind Speed Wind Dir Waves Ship Positions

Patricia Ann

Owner: AmNav Maritime Corporation, Oakland, CA. More information available from US FCC via Universal Licensing System and Coast Guard Vessel Documentation Center.

Last reported at 2018-Jan-23 14:00 UTC. Time now 2018-Jan-23 14:05 UTC.
Position N 37°49' W 122°20'.

Length 24 m; draft 4.9 m.

Type: Tug. MMSI: 367330510.

Date/timePositionNaut miles runAvg speedWind from/ knotsBaromVisibWave heightAir tempDewpointWater temp
2018-Jan-23 14:00N 37°49' W 122°20'1 2.1
2018-Jan-23 13:30N 37°48' W 122°19'0 0.8
2018-Jan-23 13:00N 37°48' W 122°20'1 2.7
2018-Jan-23 12:30N 37°48' W 122°21'1 1.2
2018-Jan-23 11:59N 37°48' W 122°21'0 0.1
2018-Jan-23 11:30N 37°48' W 122°21'0 0.0
2018-Jan-23 11:00N 37°48' W 122°21'0 0.0
2018-Jan-23 10:30N 37°48' W 122°21'0 0.0
2018-Jan-23 10:00N 37°48' W 122°21'0 0.0
2018-Jan-23 09:30N 37°48' W 122°21'1 2.3
2018-Jan-23 09:00N 37°48' W 122°19'1 1.9
2018-Jan-23 08:30N 37°48' W 122°18'0 0.6
2018-Jan-23 08:00N 37°48' W 122°18'2 4.8
2018-Jan-23 07:30N 37°48' W 122°21'1 2.3
2018-Jan-23 07:00N 37°49' W 122°20'1 1.6
2018-Jan-23 06:30N 37°49' W 122°19'0 0.0
2018-Jan-23 05:59N 37°49' W 122°19'0 0.0
2018-Jan-23 05:30N 37°49' W 122°19'0 0.0
2018-Jan-23 05:00N 37°49' W 122°19'0 0.0
2018-Jan-23 04:30N 37°49' W 122°19'0 0.0
2018-Jan-23 03:59N 37°49' W 122°19'3 5.8
2018-Jan-23 03:30N 37°50' W 122°22'5 9.8
2018-Jan-23 03:00N 37°55' W 122°25'1 1.1
2018-Jan-23 02:18N 37°55' W 122°25'1 1.7
2018-Jan-23 01:58N 37°55' W 122°25'2 4.4
2018-Jan-23 01:30N 37°53' W 122°25'2 3.9
2018-Jan-23 01:00N 37°52' W 122°24'4 8.3
2018-Jan-23 00:30N 37°49' W 122°20'1 2.0
2018-Jan-22 23:54N 37°49' W 122°19'0 0.0
2018-Jan-22 23:29N 37°49' W 122°19'0 0.0
2018-Jan-22 23:00N 37°49' W 122°19'0 0.0
2018-Jan-22 22:30N 37°49' W 122°19'0 0.0
2018-Jan-22 22:00N 37°49' W 122°19'0 0.0
2018-Jan-22 21:30N 37°49' W 122°19'0 0.0
2018-Jan-22 21:00N 37°49' W 122°19'0 0.0
2018-Jan-22 20:30N 37°49' W 122°19'0 0.0
2018-Jan-22 20:00N 37°49' W 122°19'0 0.0
2018-Jan-22 19:30N 37°49' W 122°19'0 0.0
2018-Jan-22 19:00N 37°49' W 122°19'0 0.0
2018-Jan-22 18:30N 37°49' W 122°19'0 0.0
2018-Jan-22 18:00N 37°49' W 122°19'0 0.0
2018-Jan-22 17:30N 37°49' W 122°19'0 0.0
2018-Jan-22 17:00N 37°49' W 122°19'0 0.0
2018-Jan-22 16:30N 37°49' W 122°19'0 0.0
2018-Jan-22 15:59N 37°49' W 122°19'0 0.0
2018-Jan-22 15:30N 37°49' W 122°19'2 3.2
2018-Jan-22 15:00N 37°48' W 122°19'0 0.2
2018-Jan-22 14:30N 37°48' W 122°19'1 1.9
2018-Jan-22 14:01N 37°48' W 122°18'2 4.9
2018-Jan-22 13:31N 37°48' W 122°21'1 2.9
2018-Jan-22 13:01N 37°48' W 122°22'1 1.0
2018-Jan-22 12:30N 37°48' W 122°22'3 5.4
2018-Jan-22 12:00N 37°49' W 122°19'0 0.0
2018-Jan-22 11:30N 37°49' W 122°19'0 0.0
2018-Jan-22 11:00N 37°49' W 122°19'0 0.0
2018-Jan-22 10:30N 37°49' W 122°19'0 0.0
2018-Jan-22 10:00N 37°49' W 122°19'0 0.0
2018-Jan-22 09:30N 37°49' W 122°19'0 0.0
2018-Jan-22 09:00N 37°49' W 122°19'0 0.0
2018-Jan-22 08:30N 37°49' W 122°19'0 0.0
2018-Jan-22 08:00N 37°49' W 122°19'0 0.0
2018-Jan-22 07:30N 37°49' W 122°19'0 0.0
2018-Jan-22 07:00N 37°49' W 122°19'0 0.0
2018-Jan-22 06:30N 37°49' W 122°19'0 0.0
2018-Jan-22 06:01N 37°49' W 122°19'0 0.0
2018-Jan-22 05:30N 37°49' W 122°19'0 0.0
2018-Jan-22 05:00N 37°49' W 122°19'0 0.0
2018-Jan-22 04:30N 37°49' W 122°19'0 0.0
2018-Jan-22 04:00N 37°49' W 122°19'0 0.0
2018-Jan-22 03:29N 37°49' W 122°19'0 0.0
2018-Jan-22 03:01N 37°49' W 122°19'2 3.3
2018-Jan-22 02:30N 37°48' W 122°19'0 0.1
2018-Jan-22 02:01N 37°48' W 122°19'0 0.7
2018-Jan-22 01:30N 37°48' W 122°19'0 0.1
2018-Jan-22 01:00N 37°48' W 122°19'0 0.7
2018-Jan-22 00:31N 37°48' W 122°20'3 5.8
2018-Jan-22 00:00N 37°50' W 122°22'4 9.0
2018-Jan-21 23:30N 37°54' W 122°25'2 4.8
2018-Jan-21 23:00N 37°55' W 122°22'0 0.0
2018-Jan-21 22:30N 37°55' W 122°22'0 0.9
2018-Jan-21 22:00N 37°55' W 122°22'0 0.9
2018-Jan-21 21:30N 37°55' W 122°22'0 0.0
2018-Jan-21 21:00N 37°55' W 122°22'0 0.0
2018-Jan-21 20:30N 37°55' W 122°22'0 0.0
2018-Jan-21 20:00N 37°55' W 122°22'0 0.0
2018-Jan-21 19:30N 37°55' W 122°22'0 0.0
2018-Jan-21 19:00N 37°55' W 122°22'0 0.0
2018-Jan-21 18:30N 37°55' W 122°22'0 0.0
2018-Jan-21 18:00N 37°55' W 122°22'0 0.0
2018-Jan-21 17:31N 37°55' W 122°22'0 0.0
2018-Jan-21 17:00N 37°55' W 122°22'1 2.1
2018-Jan-21 16:31N 37°54' W 122°23'3 6.0
2018-Jan-21 16:00N 37°51' W 122°23'5 9.3
2018-Jan-21 15:31N 37°48' W 122°19'0 0.5
2018-Jan-21 15:00N 37°48' W 122°20'1 2.8
2018-Jan-21 14:30N 37°48' W 122°21'2 4.4
2018-Jan-21 14:01N 37°48' W 122°19'1 3.0
2018-Jan-21 13:30N 37°48' W 122°20'1 2.2
2018-Jan-21 13:00N 37°48' W 122°22'3 5.4
2018-Jan-21 12:30N 37°49' W 122°19'0 0.0
2018-Jan-21 12:00N 37°49' W 122°19'0 0.0
2018-Jan-21 11:30N 37°49' W 122°19'0 0.0
2018-Jan-21 11:01N 37°49' W 122°19'0 0.0
2018-Jan-21 10:30N 37°49' W 122°19'0 0.0
2018-Jan-21 10:01N 37°49' W 122°19'0 0.0
2018-Jan-21 09:30N 37°49' W 122°19'0 0.0
2018-Jan-21 09:00N 37°49' W 122°19'0 0.0
2018-Jan-21 08:31N 37°49' W 122°19'0 0.0
2018-Jan-21 08:00N 37°49' W 122°19'0 0.0
2018-Jan-21 07:31N 37°49' W 122°19'0 0.0
2018-Jan-21 07:00N 37°49' W 122°19'0 0.0
2018-Jan-21 06:30N 37°49' W 122°19'0 0.0
2018-Jan-21 06:00N 37°49' W 122°19'0 0.0
2018-Jan-21 05:30N 37°49' W 122°19'0 0.0
2018-Jan-21 05:01N 37°49' W 122°19'0 0.0
2018-Jan-21 04:30N 37°49' W 122°19'0 0.0
2018-Jan-21 04:00N 37°49' W 122°19'0 0.0
2018-Jan-21 03:30N 37°49' W 122°19'1 1.7
2018-Jan-21 03:01N 37°49' W 122°20'0 0.6
2018-Jan-21 02:31N 37°49' W 122°20'1 2.9
2018-Jan-21 02:00N 37°48' W 122°22'1 1.6
2018-Jan-21 01:31N 37°48' W 122°21'1 1.6
2018-Jan-21 01:01N 37°49' W 122°20'0 0.2
2018-Jan-21 00:30N 37°49' W 122°20'0 0.1
2018-Jan-21 00:00N 37°49' W 122°20'0 0.2
2018-Jan-20 23:30N 37°49' W 122°20'4 7.6
2018-Jan-20 23:00N 37°51' W 122°23'4 8.7
2018-Jan-20 22:30N 37°55' W 122°25'3 5.3
2018-Jan-20 22:00N 37°54' W 122°22'0 0.5
2018-Jan-20 21:30N 37°54' W 122°22'3 5.6
2018-Jan-20 21:00N 37°52' W 122°24'4 8.5
2018-Jan-20 20:30N 37°49' W 122°20'1 2.3
2018-Jan-20 20:01N 37°49' W 122°19'0 0.0
2018-Jan-20 19:31N 37°49' W 122°19'0 0.0
2018-Jan-20 19:01N 37°49' W 122°19'0 0.0
2018-Jan-20 18:30N 37°49' W 122°19'0 0.0
2018-Jan-20 18:01N 37°49' W 122°19'0 0.0
2018-Jan-20 17:30N 37°49' W 122°19'0 0.0
2018-Jan-20 17:00N 37°49' W 122°19'2 3.4
2018-Jan-20 16:30N 37°48' W 122°21'2 3.1
2018-Jan-20 15:59N 37°48' W 122°19'1 1.7
2018-Jan-20 15:30N 37°48' W 122°20'3 5.1
2018-Jan-20 15:00N 37°49' W 122°23'1 2.2
2018-Jan-20 14:30N 37°50' W 122°24'2 4.1
2018-Jan-20 14:00N 37°52' W 122°24'3 6.8
2018-Jan-20 13:30N 37°54' W 122°22'0 0.3
2018-Jan-20 13:01N 37°54' W 122°22'2 3.0
2018-Jan-20 12:30N 37°54' W 122°24'1 2.7
2018-Jan-20 12:00N 37°54' W 122°25'3 5.6
2018-Jan-20 11:31N 37°51' W 122°23'4 8.3
2018-Jan-20 11:00N 37°49' W 122°19'1 1.1
2018-Jan-20 10:31N 37°49' W 122°19'0 0.0
2018-Jan-20 09:59N 37°49' W 122°19'0 0.0
2018-Jan-20 09:31N 37°49' W 122°19'0 0.0
2018-Jan-20 09:01N 37°49' W 122°19'0 0.0
2018-Jan-20 08:30N 37°49' W 122°19'0 0.0
2018-Jan-20 08:00N 37°49' W 122°19'0 0.0
2018-Jan-20 07:30N 37°49' W 122°19'0 0.0
2018-Jan-20 07:00N 37°49' W 122°19'0 0.0
2018-Jan-20 06:31N 37°49' W 122°19'2 3.5
2018-Jan-20 06:00N 37°48' W 122°20'3 6.8
2018-Jan-20 05:30N 37°45' W 122°20'1 2.5
2018-Jan-20 05:01N 37°43' W 122°20'3 6.7
2018-Jan-20 04:31N 37°47' W 122°22'2 4.6
2018-Jan-20 04:00N 37°48' W 122°19'0 0.6
2018-Jan-20 03:31N 37°48' W 122°19'1 2.6
2018-Jan-20 03:00N 37°49' W 122°20'0 0.2
2018-Jan-20 02:30N 37°49' W 122°20'1 2.4
2018-Jan-20 02:00N 37°48' W 122°21'1 1.1
2018-Jan-20 01:30N 37°48' W 122°21'0 0.0
2018-Jan-20 01:00N 37°48' W 122°21'0 0.0
2018-Jan-20 00:30N 37°48' W 122°21'3 6.4
2018-Jan-20 00:01N 37°51' W 122°23'3 7.0
2018-Jan-19 23:30N 37°54' W 122°23'1 2.6
2018-Jan-19 23:00N 37°55' W 122°22'0 0.5
2018-Jan-19 22:30N 37°55' W 122°22'2 3.5
2018-Jan-19 22:00N 37°54' W 122°24'1 1.9
2018-Jan-19 21:30N 37°55' W 122°25'510.1
2018-Jan-19 21:00N 37°50' W 122°22'3 5.8
2018-Jan-19 20:30N 37°49' W 122°19'0 0.0
2018-Jan-19 20:00N 37°49' W 122°19'0 0.0
2018-Jan-19 19:30N 37°49' W 122°19'0 0.0
2018-Jan-19 19:00N 37°49' W 122°19'0 0.0
2018-Jan-19 18:30N 37°49' W 122°19'0 0.0
2018-Jan-19 18:00N 37°49' W 122°19'0 0.0
2018-Jan-19 17:30N 37°49' W 122°19'0 0.0
2018-Jan-19 16:59N 37°49' W 122°19'0 0.0
2018-Jan-19 16:29N 37°49' W 122°19'0 0.0
2018-Jan-19 15:58N 37°49' W 122°19'0 0.0
2018-Jan-19 15:30N 37°49' W 122°19'0 0.0
2018-Jan-19 14:57N 37°49' W 122°19'0 0.0
2018-Jan-19 14:29N 37°49' W 122°19'0 0.0
2018-Jan-19 14:00N 37°49' W 122°19'0 0.0
2018-Jan-19 13:30N 37°49' W 122°19'0 0.0
2018-Jan-19 13:00N 37°49' W 122°19'0 0.0
2018-Jan-19 12:30N 37°49' W 122°19'0 0.0
2018-Jan-19 12:00N 37°49' W 122°19'0 0.0
2018-Jan-19 11:30N 37°49' W 122°19'0 0.0
2018-Jan-19 11:00N 37°49' W 122°19'0 0.0
2018-Jan-19 10:30N 37°49' W 122°19'0 0.0
2018-Jan-19 10:01N 37°49' W 122°19'0 0.0
2018-Jan-19 09:31N 37°49' W 122°19'0 0.0
2018-Jan-19 09:01N 37°49' W 122°19'0 0.0
2018-Jan-19 08:30N 37°49' W 122°19'0 0.0
2018-Jan-19 08:01N 37°49' W 122°19'0 0.0
2018-Jan-19 07:30N 37°49' W 122°19'0 0.0
2018-Jan-19 07:00N 37°49' W 122°19'0 0.0
2018-Jan-19 06:31N 37°49' W 122°19'0 0.0
2018-Jan-19 06:00N 37°49' W 122°19'0 0.0
2018-Jan-19 05:30N 37°49' W 122°19'0 0.0
2018-Jan-19 05:00N 37°49' W 122°19'0 0.0
2018-Jan-19 04:30N 37°49' W 122°19'0 0.0
2018-Jan-19 04:01N 37°49' W 122°19'1 1.7
2018-Jan-19 03:30N 37°49' W 122°20'1 2.9
2018-Jan-19 03:00N 37°48' W 122°19'1 2.0
2018-Jan-19 02:31N 37°48' W 122°17'1 2.8
2018-Jan-19 02:00N 37°48' W 122°19'0 0.0
2018-Jan-19 01:30N 37°48' W 122°19'1 1.3
2018-Jan-19 01:00N 37°48' W 122°20'2 3.2
2018-Jan-19 00:30N 37°49' W 122°19'0 0.0
2018-Jan-19 00:00N 37°49' W 122°19'0 0.0
2018-Jan-18 23:30N 37°49' W 122°19'0 0.0
2018-Jan-18 23:01N 37°49' W 122°19'0 0.0
2018-Jan-18 22:30N 37°49' W 122°19'0 0.0
2018-Jan-18 21:59N 37°49' W 122°19'0 0.9
2018-Jan-18 21:30N 37°49' W 122°19'4 7.9
2018-Jan-18 21:01N 37°51' W 122°23'4 4.9
2018-Jan-18 20:07N 37°56' W 122°25'0 0.0
2018-Jan-18 20:00N 37°56' W 122°25'0 0.4
2018-Jan-18 19:29N 37°55' W 122°25'2 4.2
2018-Jan-18 18:59N 37°53' W 122°25'3 6.6
2018-Jan-18 18:30N 37°51' W 122°23'3 6.9
2018-Jan-18 18:00N 37°49' W 122°19'0 0.6
2018-Jan-18 17:30N 37°49' W 122°19'0 0.0
2018-Jan-18 17:01N 37°49' W 122°19'0 0.0
2018-Jan-18 16:30N 37°49' W 122°19'0 0.0
2018-Jan-18 16:00N 37°49' W 122°19'0 0.0
2018-Jan-18 15:30N 37°49' W 122°19'2 3.6
2018-Jan-18 15:00N 37°48' W 122°21'0 0.5
2018-Jan-18 14:31N 37°48' W 122°20'2 3.0
2018-Jan-18 14:00N 37°48' W 122°19'1 1.5
2018-Jan-18 13:31N 37°48' W 122°18'2 3.0
2018-Jan-18 13:01N 37°48' W 122°20'2 3.7
2018-Jan-18 12:31N 37°47' W 122°22'2 3.0
2018-Jan-18 12:00N 37°48' W 122°21'2 3.6
2018-Jan-18 11:30N 37°49' W 122°19'0 0.0
2018-Jan-18 11:00N 37°49' W 122°19'0 0.0
2018-Jan-18 10:30N 37°49' W 122°19'0 0.0
2018-Jan-18 10:01N 37°49' W 122°19'0 0.0
2018-Jan-18 09:31N 37°49' W 122°19'0 0.0
2018-Jan-18 08:59N 37°49' W 122°19'0 0.0
2018-Jan-18 08:30N 37°49' W 122°19'0 0.0
2018-Jan-18 08:00N 37°49' W 122°19'0 0.0
2018-Jan-18 07:30N 37°49' W 122°19'0 0.0
2018-Jan-18 07:00N 37°49' W 122°19'0 0.0
2018-Jan-18 06:30N 37°49' W 122°19'0 0.0
2018-Jan-18 05:59N 37°49' W 122°19'0 0.0
2018-Jan-18 05:30N 37°49' W 122°19'0 0.0
2018-Jan-18 05:00N 37°49' W 122°19'0 0.0
2018-Jan-18 04:30N 37°49' W 122°19'0 0.0
2018-Jan-18 04:00N 37°49' W 122°19'1 1.1
2018-Jan-18 03:30N 37°49' W 122°19'1 2.2
2018-Jan-18 03:00N 37°48' W 122°19'0 0.6
2018-Jan-18 02:30N 37°48' W 122°19'0 0.0
2018-Jan-18 02:01N 37°48' W 122°19'0 0.5
2018-Jan-18 01:31N 37°48' W 122°19'1 1.8
2018-Jan-18 01:01N 37°48' W 122°20'2 1.9
2018-Jan-18 00:00N 37°49' W 122°19'0 0.0
2018-Jan-17 23:57N 37°49' W 122°19'  

Dump ship's entire track history